createdAt,value
2023-01-06T00:04:54.621Z,101542.53
2023-01-06T00:09:56.171Z,101538.53
2023-01-06T00:14:58.326Z,101526.34
2023-01-06T00:19:59.900Z,101530.50
2023-01-06T00:25:01.473Z,101520.31
2023-01-06T00:30:03.236Z,101521.59
2023-01-06T00:35:05.092Z,101523.06
2023-01-06T00:40:07.054Z,101521.50
2023-01-06T00:45:08.948Z,101508.72
2023-01-06T00:50:10.905Z,101518.78
2023-01-06T00:55:12.380Z,101524.22
2023-01-06T01:00:14.115Z,101514.31
2023-01-06T01:05:15.626Z,101507.00
2023-01-06T01:10:17.120Z,101503.41
2023-01-06T01:15:18.610Z,101503.41
2023-01-06T01:20:20.132Z,101511.28
2023-01-06T01:25:21.690Z,101519.59
2023-01-06T01:30:23.224Z,101512.00
2023-01-06T01:35:24.753Z,101519.72
2023-01-06T01:40:26.618Z,101514.38
2023-01-06T01:45:29.796Z,101509.09
2023-01-06T01:50:37.389Z,101497.16
2023-01-06T01:55:39.259Z,101500.63
2023-01-06T02:00:43.791Z,101487.72
2023-01-06T02:05:49.715Z,101483.41
2023-01-06T02:10:51.213Z,101473.94
2023-01-06T02:16:08.583Z,101469.66
2023-01-06T02:21:22.005Z,101461.78
2023-01-06T02:26:38.796Z,101442.13
2023-01-06T02:31:46.346Z,101438.88
2023-01-06T02:37:00.014Z,101433.84
2023-01-06T02:42:10.587Z,101430.97
2023-01-06T02:47:21.363Z,101419.63
2023-01-06T02:52:43.488Z,101407.84
2023-01-06T02:57:57.687Z,101389.34
2023-01-06T03:03:04.294Z,101381.03
2023-01-06T03:08:11.244Z,101369.44
2023-01-06T03:13:53.214Z,101371.72
2023-01-06T03:18:55.876Z,101365.16
2023-01-06T03:23:57.705Z,101344.06
2023-01-06T03:29:00.414Z,101329.34
2023-01-06T03:34:22.801Z,101338.94
2023-01-06T03:40:02.839Z,101309.53
2023-01-06T03:45:10.412Z,101303.16
2023-01-06T03:50:32.071Z,101301.56
2023-01-06T03:55:36.731Z,101303.28
2023-01-06T04:00:38.337Z,101301.41
2023-01-06T04:05:39.968Z,101289.97
2023-01-06T04:10:41.486Z,101285.06
2023-01-06T04:15:42.990Z,101279.16
2023-01-06T04:20:44.529Z,101280.06
2023-01-06T04:25:46.148Z,101272.75
2023-01-06T04:30:47.615Z,101263.44
2023-01-06T04:35:49.143Z,101263.44
2023-01-06T04:40:50.713Z,101246.94
2023-01-06T04:45:52.247Z,101235.75
2023-01-06T04:51:04.648Z,101224.41
2023-01-06T04:56:09.095Z,101217.41
2023-01-06T05:01:12.542Z,101208.75
2023-01-06T05:06:15.607Z,101205.44
2023-01-06T05:11:22.539Z,101203.56
2023-01-06T05:16:29.727Z,101211.34
2023-01-06T05:21:32.851Z,101207.84
2023-01-06T05:26:34.564Z,101193.22
2023-01-06T05:31:36.166Z,101186.13
2023-01-06T05:36:37.723Z,101197.06
2023-01-06T05:41:39.325Z,101205.50
2023-01-06T05:46:40.896Z,101206.09
2023-01-06T05:51:42.440Z,101206.50
2023-01-06T05:56:43.977Z,101211.53
2023-01-06T06:01:45.641Z,101206.38
2023-01-06T06:06:47.173Z,101215.72
2023-01-06T06:11:51.815Z,101208.69
2023-01-06T06:16:53.610Z,101219.81
2023-01-06T06:21:55.099Z,101224.53
2023-01-06T06:26:56.582Z,101219.50
2023-01-06T06:31:58.164Z,101239.28
2023-01-06T06:36:59.745Z,101233.09
2023-01-06T06:42:01.289Z,101250.00
2023-01-06T06:47:02.770Z,101257.38
2023-01-06T06:52:04.515Z,101266.25
2023-01-06T06:57:06.021Z,101298.06
2023-01-06T07:02:08.929Z,101296.22
2023-01-06T07:07:10.572Z,101310.16
2023-01-06T07:12:12.139Z,101328.47
2023-01-06T07:17:13.638Z,101320.75
2023-01-06T07:22:15.115Z,101327.78
2023-01-06T07:27:16.589Z,101353.78
2023-01-06T07:32:18.133Z,101352.50
2023-01-06T07:37:19.687Z,101349.31
2023-01-06T07:42:21.221Z,101364.44
2023-01-06T07:47:22.770Z,101370.00
2023-01-06T07:52:24.338Z,101391.28
2023-01-06T07:57:27.530Z,101403.81
2023-01-06T08:02:29.165Z,101417.66
2023-01-06T08:07:30.755Z,101432.03
2023-01-06T08:12:32.303Z,101433.91
2023-01-06T08:17:33.911Z,101436.00
2023-01-06T08:22:35.411Z,101446.72
2023-01-06T08:27:37.006Z,101449.59
2023-01-06T08:32:38.563Z,101458.03
2023-01-06T08:37:40.059Z,101472.09
2023-01-06T08:42:41.521Z,101474.09
2023-01-06T08:47:43.063Z,101482.22
2023-01-06T08:52:44.557Z,101480.75
2023-01-06T08:57:46.016Z,101496.72
2023-01-06T09:02:47.597Z,101514.81
2023-01-06T09:07:50.752Z,101511.53
2023-01-06T09:12:52.327Z,101507.69
2023-01-06T09:17:55.194Z,101507.88
2023-01-06T09:22:56.734Z,101515.25
2023-01-06T09:27:59.207Z,101506.53
2023-01-06T09:33:00.731Z,101523.22
2023-01-06T09:38:02.274Z,101535.81
2023-01-06T09:43:28.456Z,101543.56
2023-01-06T09:48:35.720Z,101551.19
2023-01-06T09:53:40.976Z,101564.22
2023-01-06T09:58:50.571Z,101568.56
2023-01-06T10:03:52.212Z,101579.34
2023-01-06T10:09:31.067Z,101593.25
2023-01-06T10:14:50.959Z,101591.00
2023-01-06T10:19:55.104Z,101605.06
2023-01-06T10:25:08.569Z,101599.44
2023-01-06T10:30:20.801Z,101591.56
2023-01-06T10:35:26.612Z,101610.09
2023-01-06T10:40:30.669Z,101602.91
2023-01-06T10:45:39.828Z,101613.38
2023-01-06T10:50:42.122Z,101618.38
2023-01-06T10:55:51.117Z,101611.63
2023-01-06T11:01:01.419Z,101614.34
2023-01-06T11:06:15.168Z,101607.19
2023-01-06T11:11:34.182Z,101605.59
2023-01-06T11:16:37.191Z,101608.38
2023-01-06T11:21:44.390Z,101596.50
2023-01-06T11:26:51.411Z,101593.63
2023-01-06T11:31:53.122Z,101588.16
2023-01-06T11:36:55.555Z,101578.69
2023-01-06T11:42:04.207Z,101581.22
2023-01-06T11:47:14.429Z,101596.97
2023-01-06T11:52:24.943Z,101594.72
2023-01-06T11:57:54.922Z,101595.91
2023-01-06T12:03:07.432Z,101587.88
2023-01-06T12:08:23.988Z,101584.00
2023-01-06T12:13:27.286Z,101581.00
2023-01-06T12:18:33.231Z,101567.66
2023-01-06T12:23:40.834Z,101566.09
2023-01-06T12:28:43.414Z,101559.75
2023-01-06T12:34:28.932Z,101560.91
2023-01-06T12:39:54.033Z,101571.03
2023-01-06T12:45:22.069Z,101575.50
2023-01-06T12:50:41.513Z,101584.50
2023-01-06T12:56:22.394Z,101600.00
2023-01-06T13:01:42.566Z,101599.56
2023-01-06T13:06:59.016Z,101595.69
2023-01-06T13:12:30.591Z,101588.38
2023-01-06T13:18:05.542Z,101596.94
2023-01-06T13:23:42.387Z,101583.00
2023-01-06T13:29:02.946Z,101590.31
2023-01-06T13:34:13.669Z,101594.75
2023-01-06T13:39:18.238Z,101582.44
2023-01-06T13:44:27.206Z,101578.25
2023-01-06T13:49:30.161Z,101564.50
2023-01-06T13:54:40.936Z,101563.06
2023-01-06T14:00:18.140Z,101558.06
2023-01-06T14:05:22.327Z,101571.91
2023-01-06T14:10:34.939Z,101586.28
2023-01-06T14:15:36.637Z,101588.94
2023-01-06T14:20:40.163Z,101583.91
2023-01-06T14:25:43.123Z,101588.91
2023-01-06T14:30:44.875Z,101591.34
2023-01-06T14:35:47.701Z,101581.31
2023-01-06T14:41:06.254Z,101597.94
2023-01-06T14:46:16.226Z,101585.00
2023-01-06T14:51:20.738Z,101593.13
2023-01-06T14:56:24.630Z,101580.53
2023-01-06T15:01:35.605Z,101580.53
2023-01-06T15:06:37.196Z,101577.34
2023-01-06T15:11:42.633Z,101581.78
2023-01-06T15:16:45.222Z,101583.19
2023-01-06T15:21:48.920Z,101588.88
2023-01-06T15:26:52.416Z,101590.63
2023-01-06T15:31:55.423Z,101598.44
2023-01-06T15:36:57.426Z,101597.78
2023-01-06T15:42:00.460Z,101604.09
2023-01-06T15:47:08.758Z,101600.63
2023-01-06T15:52:44.438Z,101599.31
2023-01-06T15:57:54.624Z,101583.69
2023-01-06T16:02:56.384Z,101582.47
2023-01-06T16:08:04.434Z,101583.06
2023-01-06T16:13:29.271Z,101587.13
2023-01-06T16:18:36.764Z,101592.81
2023-01-06T16:23:39.173Z,101591.69
2023-01-06T16:28:49.284Z,101598.00
2023-01-06T16:33:50.850Z,101593.69
2023-01-06T16:38:52.412Z,101590.09
2023-01-06T16:43:54.507Z,101597.38
2023-01-06T16:49:00.588Z,101591.50
2023-01-06T16:54:08.359Z,101597.06
2023-01-06T16:59:13.541Z,101591.88
2023-01-06T17:04:15.793Z,101588.59
2023-01-06T17:09:20.591Z,101585.28
2023-01-06T17:14:23.183Z,101586.38
2023-01-06T17:19:28.189Z,101590.84
2023-01-06T17:24:30.699Z,101592.69
2023-01-06T17:29:35.305Z,101579.22
2023-01-06T17:34:37.300Z,101567.25
2023-01-06T17:39:41.354Z,101566.50
2023-01-06T17:44:47.014Z,101570.06
2023-01-06T17:49:52.178Z,101567.75
2023-01-06T17:55:15.932Z,101565.03
2023-01-06T18:00:19.703Z,101570.00
2023-01-06T18:05:23.854Z,101565.97
2023-01-06T18:10:25.355Z,101555.38
2023-01-06T18:15:26.823Z,101569.69
2023-01-06T18:20:29.069Z,101573.41
2023-01-06T18:25:30.548Z,101577.13
2023-01-06T18:30:32.816Z,101587.25
2023-01-06T18:35:34.755Z,101573.94
2023-01-06T18:40:38.298Z,101582.09
2023-01-06T18:45:40.547Z,101573.94
2023-01-06T18:50:48.222Z,101579.78
2023-01-06T18:55:51.269Z,101569.28
2023-01-06T19:00:56.675Z,101550.53
2023-01-06T19:06:40.939Z,101547.56
2023-01-06T19:11:42.497Z,101521.38
2023-01-06T19:16:56.329Z,101519.19
2023-01-06T19:22:09.341Z,101511.41
2023-01-06T19:27:47.240Z,101516.53
2023-01-06T19:32:48.838Z,101526.31
2023-01-06T19:37:57.590Z,101505.94
2023-01-06T19:43:11.222Z,101506.88
2023-01-06T19:48:24.263Z,101495.41
2023-01-06T19:53:42.257Z,101498.38
2023-01-06T19:58:51.554Z,101494.53
2023-01-06T20:03:56.139Z,101472.25
2023-01-06T20:08:57.659Z,101479.97
2023-01-06T20:13:59.173Z,101472.78
2023-01-06T20:19:00.759Z,101457.53
2023-01-06T20:24:02.286Z,101473.59
2023-01-06T20:29:04.770Z,101475.75
2023-01-06T20:34:06.320Z,101476.38
2023-01-06T20:39:07.863Z,101475.78
2023-01-06T20:44:09.347Z,101472.81
2023-01-06T20:49:13.008Z,101459.63
2023-01-06T20:54:14.567Z,101463.66
2023-01-06T20:59:16.155Z,101467.81
2023-01-06T21:04:17.681Z,101463.09
2023-01-06T21:09:19.202Z,101462.38
2023-01-06T21:14:21.155Z,101453.78
2023-01-06T21:19:23.742Z,101453.50
2023-01-06T21:24:26.595Z,101454.50
2023-01-06T21:29:28.144Z,101449.66
2023-01-06T21:34:29.706Z,101448.53
2023-01-06T21:39:31.258Z,101430.44
2023-01-06T21:44:32.782Z,101435.38
2023-01-06T21:49:34.281Z,101439.22
2023-01-06T21:54:35.940Z,101430.63
2023-01-06T21:59:38.070Z,101433.34
2023-01-06T22:04:39.600Z,101424.59
2023-01-06T22:09:43.415Z,101425.00
2023-01-06T22:14:45.668Z,101427.59
2023-01-06T22:19:48.849Z,101436.06
2023-01-06T22:24:53.302Z,101429.75
2023-01-06T22:29:54.773Z,101430.03
2023-01-06T22:34:56.243Z,101418.84
2023-01-06T22:39:57.841Z,101424.13
2023-01-06T22:44:59.354Z,101424.28
2023-01-06T22:50:02.012Z,101431.28
2023-01-06T22:55:04.429Z,101431.81
2023-01-06T23:00:12.065Z,101433.81
2023-01-06T23:05:13.432Z,101424.91
2023-01-06T23:10:15.239Z,101430.69
2023-01-06T23:15:16.825Z,101430.97
2023-01-06T23:20:18.295Z,101421.69
2023-01-06T23:25:19.768Z,101421.81
2023-01-06T23:30:21.340Z,101418.97
2023-01-06T23:35:22.823Z,101416.66
2023-01-06T23:40:24.315Z,101407.13
2023-01-06T23:45:25.812Z,101415.97
2023-01-06T23:50:27.349Z,101404.91
2023-01-06T23:55:28.833Z,101410.09
